Time;durP1;ratioP1;P1;durP2;ratioP2;P2;SDS_P1;SDS_P2;PMS_P1;PMS_P2;Temp;Humidity;BMP_temperature;BMP_pressure;BME280_temperature;BME280_humidity;BME280_pressure;Samples;Min_cycle;Max_cycle;Signal;HPM_P1;HPM_P2
2021/01/10 00:00:05;;;;;;;12.77;5.97;;;2.00;99.90;;;;;;4972767;28;20639;-92
2021/01/10 00:02:31;;;;;;;9.52;4.30;;;2.00;99.90;;;;;;4956657;28;20034;-94
2021/01/10 00:04:56;;;;;;;10.07;4.80;;;2.00;99.90;;;;;;4957204;28;20062;-93
2021/01/10 00:07:25;;;;;;;15.10;5.85;;;2.10;99.90;;;;;;4974419;28;20019;-90
2021/01/10 00:09:52;;;;;;;10.40;5.35;;;2.10;99.90;;;;;;4956074;28;20015;-90
2021/01/10 00:12:23;;;;;;;14.48;6.80;;;2.10;99.90;;;;;;4953097;28;20034;-91
2021/01/10 00:14:49;;;;;;;12.30;5.78;;;2.10;99.90;;;;;;4955474;28;20034;-91
2021/01/10 00:17:15;;;;;;;14.32;6.05;;;2.10;99.90;;;;;;4956301;28;20035;-92
2021/01/10 00:19:45;;;;;;;17.80;5.55;;;2.10;99.90;;;;;;4956474;28;20022;-93
2021/01/10 00:22:15;;;;;;;12.37;5.33;;;2.10;99.90;;;;;;4958101;28;20059;-91
2021/01/10 00:24:41;;;;;;;11.52;5.80;;;2.10;99.90;;;;;;4956389;28;20011;-90
2021/01/10 00:27:14;;;;;;;11.40;5.05;;;2.20;99.90;;;;;;4957471;28;20045;-93
2021/01/10 00:29:45;;;;;;;12.80;5.18;;;2.20;99.90;;;;;;4958546;28;20504;-91
2021/01/10 00:32:11;;;;;;;16.08;5.68;;;2.20;99.90;;;;;;4960406;28;20035;-92
2021/01/10 00:34:37;;;;;;;12.70;5.45;;;2.20;99.90;;;;;;4958476;28;20023;-92
2021/01/10 00:37:09;;;;;;;14.45;5.03;;;2.20;99.90;;;;;;4972209;28;20035;-94
2021/01/10 00:39:35;;;;;;;8.73;4.57;;;2.20;99.90;;;;;;4956294;28;20042;-93
2021/01/10 00:42:07;;;;;;;7.55;3.60;;;2.20;99.90;;;;;;4970022;28;20031;-92
2021/01/10 00:44:32;;;;;;;13.60;5.43;;;2.20;99.90;;;;;;4956283;28;20118;-91
2021/01/10 00:46:58;;;;;;;9.95;3.92;;;2.20;99.90;;;;;;4957548;28;20197;-90
2021/01/10 00:49:24;;;;;;;11.52;4.60;;;2.20;99.90;;;;;;4957447;28;20019;-90
2021/01/10 00:51:50;;;;;;;8.93;4.00;;;2.30;99.90;;;;;;4957430;28;20037;-89
2021/01/10 00:54:16;;;;;;;8.30;4.88;;;2.30;99.90;;;;;;4956100;28;20035;-90
2021/01/10 00:56:41;;;;;;;11.52;4.70;;;2.30;99.90;;;;;;4966562;28;20026;-90
2021/01/10 00:59:07;;;;;;;14.18;4.93;;;2.40;99.90;;;;;;4974832;28;20034;-91
2021/01/10 01:01:33;;;;;;;8.80;4.88;;;2.30;99.90;;;;;;4981926;28;20042;-90
2021/01/10 01:03:58;;;;;;;4.85;2.85;;;2.30;99.90;;;;;;4974541;28;20023;-92
2021/01/10 01:06:24;;;;;;;6.60;3.65;;;2.30;99.90;;;;;;4963918;28;20464;-92
2021/01/10 01:08:50;;;;;;;9.60;4.43;;;2.40;99.90;;;;;;4959084;28;20031;-93
2021/01/10 01:11:15;;;;;;;9.75;4.60;;;2.30;99.90;;;;;;4956806;28;20026;-93
2021/01/10 01:13:41;;;;;;;10.77;4.22;;;2.40;99.90;;;;;;4956635;28;20033;-93
2021/01/10 01:16:07;;;;;;;13.23;4.00;;;2.40;99.90;;;;;;4955744;28;20116;-93
2021/01/10 01:18:34;;;;;;;11.02;4.75;;;2.40;99.90;;;;;;4956053;28;20480;-93
2021/01/10 01:21:00;;;;;;;10.52;4.53;;;2.40;99.90;;;;;;4957101;28;20097;-93
2021/01/10 01:23:25;;;;;;;8.20;4.57;;;2.40;99.90;;;;;;4957503;28;20022;-93
2021/01/10 01:25:51;;;;;;;11.13;4.50;;;2.40;99.90;;;;;;4957274;28;20030;-93
2021/01/10 01:28:16;;;;;;;10.30;5.15;;;2.40;99.90;;;;;;4958177;28;20023;-92
2021/01/10 01:30:43;;;;;;;14.07;5.18;;;2.40;99.90;;;;;;4957114;28;20085;-92
2021/01/10 01:33:09;;;;;;;11.00;5.68;;;2.40;99.90;;;;;;4955609;28;20026;-92
2021/01/10 01:35:35;;;;;;;10.70;5.22;;;2.30;99.90;;;;;;4957207;28;20086;-94
2021/01/10 01:38:00;;;;;;;18.23;6.70;;;2.30;99.90;;;;;;4956593;28;20082;-91
2021/01/10 01:40:26;;;;;;;13.05;5.78;;;2.30;99.90;;;;;;4957216;28;20507;-93
2021/01/10 01:42:51;;;;;;;12.93;5.30;;;2.20;99.90;;;;;;4956549;28;20022;-93
2021/01/10 01:45:17;;;;;;;16.25;6.20;;;2.30;99.90;;;;;;4957594;28;20027;-92
2021/01/10 01:47:43;;;;;;;13.95;5.88;;;2.20;99.90;;;;;;4956603;28;20089;-92
2021/01/10 01:50:09;;;;;;;13.50;5.35;;;2.20;99.90;;;;;;4956083;28;20097;-93
2021/01/10 01:52:35;;;;;;;13.25;5.13;;;2.20;99.90;;;;;;4954991;28;20034;-90
2021/01/10 01:55:00;;;;;;;10.35;4.95;;;2.20;99.90;;;;;;4955314;28;20026;-92
2021/01/10 01:57:26;;;;;;;11.48;5.70;;;2.20;99.90;;;;;;4955471;28;20033;-92
2021/01/10 01:59:52;;;;;;;14.02;6.32;;;2.20;99.90;;;;;;4955428;28;20022;-91
2021/01/10 02:02:18;;;;;;;12.45;6.20;;;2.20;99.90;;;;;;4954620;28;20035;-92
2021/01/10 02:04:49;;;;;;;14.63;5.70;;;2.20;99.90;;;;;;4953704;28;20058;-91
2021/01/10 02:07:34;;;;;;;7.25;4.03;;;2.20;99.90;;;;;;4953723;28;20121;-91
2021/01/10 02:10:12;;;;;;;15.40;5.80;;;2.20;99.90;;;;;;4954496;28;20039;-90
2021/01/10 02:12:50;;;;;;;9.82;4.80;;;2.20;99.90;;;;;;4955204;28;20019;-93
2021/01/10 02:15:20;;;;;;;18.60;5.30;;;2.10;99.90;;;;;;4955312;28;20035;-90
2021/01/10 02:17:50;;;;;;;12.40;5.72;;;2.20;99.90;;;;;;4953927;28;20019;-91
2021/01/10 02:20:28;;;;;;;14.98;5.15;;;2.20;99.90;;;;;;4955288;28;20058;-91
2021/01/10 02:23:22;;;;;;;10.27;4.65;;;2.20;99.90;;;;;;4956249;28;20023;-92
2021/01/10 02:25:49;;;;;;;10.63;5.15;;;2.20;99.90;;;;;;4975565;28;20027;-91
2021/01/10 02:28:20;;;;;;;12.50;6.18;;;2.20;99.90;;;;;;4957976;28;20378;-92
2021/01/10 02:30:47;;;;;;;14.57;5.60;;;2.20;99.90;;;;;;4958874;28;20018;-91
2021/01/10 02:33:34;;;;;;;11.75;6.35;;;2.20;99.90;;;;;;4957689;28;20027;-92
2021/01/10 02:36:05;;;;;;;11.82;5.50;;;2.20;99.90;;;;;;4959949;28;20030;-91
2021/01/10 02:38:47;;;;;;;16.80;6.72;;;2.20;99.90;;;;;;4959118;28;20031;-91
2021/01/10 02:41:19;;;;;;;15.77;5.93;;;2.20;99.90;;;;;;4959198;28;20047;-92
2021/01/10 02:44:03;;;;;;;12.80;6.85;;;2.20;99.90;;;;;;4959302;28;20027;-93
2021/01/10 02:46:31;;;;;;;11.35;5.03;;;2.30;99.90;;;;;;4957987;28;20085;-90
2021/01/10 02:48:56;;;;;;;13.43;5.68;;;2.30;99.90;;;;;;4958684;28;20019;-90
2021/01/10 02:51:22;;;;;;;12.05;5.72;;;2.20;99.90;;;;;;4959363;28;20026;-90
2021/01/10 02:53:47;;;;;;;14.65;6.88;;;2.30;99.90;;;;;;4958546;28;20089;-93
2021/01/10 02:56:13;;;;;;;11.30;5.18;;;2.30;99.90;;;;;;4956904;28;20026;-91
2021/01/10 02:58:40;;;;;;;12.50;5.68;;;2.30;99.90;;;;;;4957614;28;20055;-92
2021/01/10 03:01:09;;;;;;;11.65;5.07;;;2.30;99.90;;;;;;4958161;28;20074;-93
2021/01/10 03:03:36;;;;;;;12.10;4.90;;;2.30;99.90;;;;;;4956684;28;20018;-94
2021/01/10 03:06:02;;;;;;;8.75;5.15;;;2.30;99.90;;;;;;4957514;28;20534;-95
2021/01/10 03:08:28;;;;;;;9.65;4.65;;;2.40;99.90;;;;;;4958627;28;20027;-91
2021/01/10 03:10:55;;;;;;;12.57;5.60;;;2.40;99.90;;;;;;4957255;28;20037;-93
2021/01/10 03:13:22;;;;;;;9.15;4.95;;;2.40;99.90;;;;;;4973993;28;20022;-90
2021/01/10 03:15:47;;;;;;;13.52;5.75;;;2.40;99.90;;;;;;4957806;28;20455;-92
2021/01/10 03:18:17;;;;;;;12.77;6.05;;;2.30;99.90;;;;;;4957191;28;20059;-94
2021/01/10 03:20:43;;;;;;;12.02;5.80;;;2.40;99.90;;;;;;4957580;28;20141;-92
2021/01/10 03:23:09;;;;;;;12.00;6.32;;;2.40;99.90;;;;;;4958817;28;20031;-92
2021/01/10 03:25:38;;;;;;;12.93;5.97;;;2.40;99.90;;;;;;4957781;28;20077;-91
2021/01/10 03:28:04;;;;;;;9.00;4.85;;;2.40;99.90;;;;;;4958817;28;20030;-91
2021/01/10 03:30:30;;;;;;;7.97;4.65;;;2.40;99.90;;;;;;4958791;28;20026;-91
2021/01/10 03:32:56;;;;;;;18.63;5.28;;;2.40;99.90;;;;;;4958141;28;20023;-91
2021/01/10 03:35:22;;;;;;;10.60;5.63;;;2.40;99.90;;;;;;4958209;28;20058;-92
2021/01/10 03:37:47;;;;;;;12.38;5.85;;;2.40;99.90;;;;;;4957978;28;20027;-90
2021/01/10 03:40:14;;;;;;;10.23;5.57;;;2.40;99.90;;;;;;4956781;28;20046;-91
2021/01/10 03:42:40;;;;;;;14.38;6.15;;;2.30;99.90;;;;;;4957337;28;20411;-92
2021/01/10 03:45:07;;;;;;;11.52;6.53;;;2.40;99.90;;;;;;4957515;28;20041;-90
2021/01/10 03:47:33;;;;;;;9.63;5.93;;;2.40;99.90;;;;;;4956758;28;20031;-91
2021/01/10 03:49:58;;;;;;;16.52;7.45;;;2.30;99.90;;;;;;4957757;28;20169;-91
2021/01/10 03:52:24;;;;;;;12.48;7.18;;;2.40;99.90;;;;;;4957403;28;20046;-90
2021/01/10 03:54:50;;;;;;;10.35;6.68;;;2.40;99.90;;;;;;4956965;28;20027;-92
2021/01/10 03:57:15;;;;;;;15.45;7.32;;;2.40;99.90;;;;;;4957319;28;20037;-92
2021/01/10 03:59:41;;;;;;;12.98;7.50;;;2.40;99.90;;;;;;4958199;28;20026;-92
2021/01/10 04:02:07;;;;;;;15.18;7.13;;;2.30;99.90;;;;;;4957095;28;20031;-93
2021/01/10 04:04:33;;;;;;;18.02;9.00;;;2.30;99.90;;;;;;4958220;28;20026;-91
2021/01/10 04:06:58;;;;;;;13.45;7.72;;;2.30;99.90;;;;;;4958929;28;20023;-92
2021/01/10 04:09:24;;;;;;;14.02;7.72;;;2.30;99.90;;;;;;4958713;28;20022;-92
2021/01/10 04:11:50;;;;;;;17.42;8.13;;;2.30;99.90;;;;;;4958207;28;20118;-92
2021/01/10 04:14:15;;;;;;;14.55;8.93;;;2.30;99.90;;;;;;4975293;28;20026;-90
2021/01/10 04:16:41;;;;;;;15.43;7.95;;;2.30;99.90;;;;;;4959044;28;20029;-89
2021/01/10 04:19:07;;;;;;;17.27;9.90;;;2.20;99.90;;;;;;4963223;28;20081;-90
2021/01/10 04:21:36;;;;;;;18.40;9.00;;;2.30;99.90;;;;;;4960298;28;20550;-92
2021/01/10 04:24:04;;;;;;;13.55;7.28;;;2.30;99.90;;;;;;4960610;28;20022;-90
2021/01/10 04:26:32;;;;;;;15.82;8.93;;;2.20;99.90;;;;;;4964653;28;20019;-90
2021/01/10 04:28:58;;;;;;;15.65;9.50;;;2.20;99.90;;;;;;4960520;28;20022;-93
2021/01/10 04:31:24;;;;;;;10.95;6.78;;;2.30;99.90;;;;;;4959454;28;20034;-91
2021/01/10 04:33:49;;;;;;;15.13;7.93;;;2.20;99.90;;;;;;4958578;28;20031;-92
2021/01/10 04:36:15;;;;;;;11.73;5.72;;;2.30;99.90;;;;;;4958885;28;20102;-91
2021/01/10 04:38:41;;;;;;;13.57;6.93;;;2.30;99.90;;;;;;4956671;28;20472;-92
2021/01/10 04:41:07;;;;;;;11.10;6.63;;;2.30;99.90;;;;;;4956555;28;20050;-90
2021/01/10 04:43:32;;;;;;;15.15;8.05;;;2.30;99.90;;;;;;4956640;28;20050;-90
2021/01/10 04:45:58;;;;;;;12.82;6.72;;;2.30;99.90;;;;;;4956400;28;20025;-92
2021/01/10 04:48:24;;;;;;;12.57;6.95;;;2.30;99.90;;;;;;4956815;28;20019;-92
2021/01/10 04:50:50;;;;;;;9.52;6.30;;;2.30;99.90;;;;;;4972480;28;20030;-92
2021/01/10 04:53:20;;;;;;;11.82;5.80;;;2.40;99.90;;;;;;4957289;28;20038;-92
2021/01/10 04:55:47;;;;;;;10.05;6.32;;;2.30;99.90;;;;;;4955550;28;20034;-92
2021/01/10 04:58:13;;;;;;;12.25;6.70;;;2.30;99.90;;;;;;4954474;28;20030;-91
2021/01/10 05:00:40;;;;;;;12.35;6.35;;;2.40;99.90;;;;;;4954432;28;20484;-90
2021/01/10 05:03:18;;;;;;;13.98;6.90;;;2.40;99.90;;;;;;4957586;28;20041;-93
2021/01/10 05:05:43;;;;;;;15.65;7.80;;;2.40;99.90;;;;;;4971700;28;20117;-93
2021/01/10 05:08:11;;;;;;;7.43;5.10;;;2.40;99.90;;;;;;4955579;28;20114;-93
2021/01/10 05:10:40;;;;;;;14.90;6.85;;;2.40;99.90;;;;;;4956799;28;20026;-93
2021/01/10 05:13:06;;;;;;;9.82;6.15;;;2.40;99.90;;;;;;4954278;28;20049;-94
2021/01/10 05:15:33;;;;;;;11.85;6.85;;;2.40;99.90;;;;;;4955596;28;20022;-92
2021/01/10 05:18:00;;;;;;;10.68;6.22;;;2.40;99.90;;;;;;4955169;28;20035;-90
2021/01/10 05:20:33;;;;;;;10.18;5.20;;;2.40;99.90;;;;;;4954452;28;20043;-93
2021/01/10 05:22:59;;;;;;;9.25;5.60;;;2.50;99.90;;;;;;4955091;28;20035;-91
2021/01/10 05:25:29;;;;;;;8.77;5.05;;;2.50;99.90;;;;;;4954326;28;20117;-93
2021/01/10 05:27:57;;;;;;;11.13;5.43;;;2.50;99.90;;;;;;4953286;28;20023;-92
2021/01/10 05:30:31;;;;;;;10.93;5.47;;;2.50;99.90;;;;;;4953610;28;20090;-94
2021/01/10 05:33:02;;;;;;;10.10;5.60;;;2.40;99.90;;;;;;4955988;28;20027;-92
2021/01/10 05:35:28;;;;;;;10.80;5.47;;;2.50;99.90;;;;;;4955545;28;20038;-90
2021/01/10 05:37:55;;;;;;;12.48;6.88;;;2.50;99.90;;;;;;4955718;28;20027;-94
2021/01/10 05:40:29;;;;;;;12.85;5.95;;;2.50;99.90;;;;;;4955945;28;20027;-95
2021/01/10 05:42:56;;;;;;;11.00;6.20;;;2.50;99.90;;;;;;4955553;28;20177;-93
2021/01/10 05:45:36;;;;;;;11.63;5.28;;;2.50;99.90;;;;;;4954208;28;20026;-93
2021/01/10 05:48:12;;;;;;;10.68;6.20;;;2.50;99.90;;;;;;4955708;28;20101;-90
2021/01/10 05:50:46;;;;;;;14.38;5.57;;;2.60;99.90;;;;;;4954762;28;20459;-92
2021/01/10 05:53:19;;;;;;;11.98;6.18;;;2.60;99.90;;;;;;4955516;28;20057;-90
2021/01/10 05:55:58;;;;;;;15.77;6.55;;;2.60;99.90;;;;;;4956182;28;20034;-92
2021/01/10 05:58:32;;;;;;;16.70;7.45;;;2.60;99.90;;;;;;4954449;28;20027;-92
2021/01/10 06:00:59;;;;;;;17.73;8.07;;;2.60;99.90;;;;;;4955060;28;20083;-94
2021/01/10 06:03:30;;;;;;;12.45;7.07;;;2.60;99.90;;;;;;4954627;28;20031;-94
2021/01/10 06:05:58;;;;;;;15.68;8.25;;;2.60;99.90;;;;;;4955455;28;20033;-93
2021/01/10 06:08:35;;;;;;;17.67;9.32;;;2.50;99.90;;;;;;4956456;28;20019;-92
2021/01/10 06:11:20;;;;;;;19.90;9.23;;;2.50;99.90;;;;;;4956668;28;20069;-92
2021/01/10 06:13:50;;;;;;;15.88;8.70;;;2.50;99.90;;;;;;4956577;28;20046;-93
2021/01/10 06:16:17;;;;;;;16.23;8.55;;;2.50;99.90;;;;;;4955981;28;20123;-93
2021/01/10 06:18:50;;;;;;;16.10;9.93;;;2.50;99.90;;;;;;4955608;28;20023;-92
2021/01/10 06:21:18;;;;;;;16.88;8.40;;;2.50;99.90;;;;;;4954982;28;20146;-92
2021/01/10 06:23:47;;;;;;;19.13;9.35;;;2.50;99.90;;;;;;4953961;28;20015;-94
2021/01/10 06:26:15;;;;;;;18.52;8.95;;;2.50;99.90;;;;;;4954161;28;20062;-92
2021/01/10 06:28:45;;;;;;;17.40;8.30;;;2.50;99.90;;;;;;4956157;28;20023;-92
2021/01/10 06:31:16;;;;;;;18.45;8.98;;;2.40;99.90;;;;;;4953999;28;20034;-93
2021/01/10 06:33:43;;;;;;;;;;;2.50;99.90;;;;;;4955535;28;20062;-92
2021/01/10 06:36:13;;;;;;;26.52;11.73;;;2.40;99.90;;;;;;4955735;28;19976;-91
2021/01/10 06:38:40;;;;;;;28.05;12.73;;;2.40;99.90;;;;;;4956483;28;20029;-93
2021/01/10 06:41:39;;;;;;;27.08;12.27;;;2.50;99.90;;;;;;4956934;28;20382;-92
2021/01/10 06:44:07;;;;;;;15.10;7.20;;;2.50;99.90;;;;;;4954536;28;20023;-93
2021/01/10 06:46:33;;;;;;;22.73;10.65;;;2.50;99.90;;;;;;4963472;28;20122;-91
2021/01/10 06:49:06;;;;;;;30.85;14.27;;;2.50;99.90;;;;;;4952746;28;20078;-92
2021/01/10 06:51:34;;;;;;;32.05;15.65;;;2.50;99.90;;;;;;4955096;28;20090;-92
2021/01/10 06:54:04;;;;;;;29.85;13.50;;;2.50;99.90;;;;;;4969700;28;20027;-92
2021/01/10 06:56:33;;;;;;;31.48;15.55;;;2.50;99.90;;;;;;4955201;28;20034;-93
2021/01/10 06:59:09;;;;;;;26.20;11.07;;;2.50;99.90;;;;;;4954794;28;20042;-92
2021/01/10 07:01:50;;;;;;;30.88;14.82;;;2.50;99.90;;;;;;4954296;28;20485;-92
2021/01/10 07:04:21;;;;;;;31.50;15.10;;;2.50;99.90;;;;;;4955119;28;20501;-92
2021/01/10 07:06:47;;;;;;;41.83;15.80;;;2.50;99.90;;;;;;4953781;28;20019;-92
2021/01/10 07:09:14;;;;;;;35.03;15.65;;;2.50;99.90;;;;;;4958568;28;20038;-91
2021/01/10 07:11:40;;;;;;;34.25;16.25;;;2.50;99.90;;;;;;4957422;28;20031;-93
2021/01/10 07:14:05;;;;;;;34.35;14.18;;;2.60;99.90;;;;;;4959070;28;20031;-93
2021/01/10 07:16:32;;;;;;;33.15;15.55;;;2.50;99.90;;;;;;4958119;28;20046;-92
2021/01/10 07:19:08;;;;;;;29.13;14.50;;;2.50;99.90;;;;;;4959379;28;20042;-93
2021/01/10 07:21:43;;;;;;;35.08;15.50;;;2.50;99.90;;;;;;4953324;28;20105;-91
2021/01/10 07:24:24;;;;;;;25.70;11.73;;;2.50;99.90;;;;;;4953063;28;20033;-93
2021/01/10 07:26:59;;;;;;;27.52;13.05;;;2.50;99.90;;;;;;4946317;28;20717;-92
2021/01/10 07:29:35;;;;;;;32.08;14.07;;;2.50;99.90;;;;;;4956217;28;20023;-92
2021/01/10 07:32:09;;;;;;;25.25;12.73;;;2.60;99.90;;;;;;4958924;28;20089;-92
2021/01/10 07:34:59;;;;;;;24.20;10.30;;;2.60;99.90;;;;;;4964219;28;20019;-93
2021/01/10 07:37:25;;;;;;;21.25;9.93;;;2.60;99.90;;;;;;4965378;28;20031;-93
2021/01/10 07:39:54;;;;;;;22.88;10.07;;;2.60;99.90;;;;;;4963974;28;20437;-92
2021/01/10 07:42:23;;;;;;;23.48;10.23;;;2.70;99.90;;;;;;4953113;28;20035;-92
2021/01/10 07:44:53;;;;;;;26.80;11.43;;;2.70;99.90;;;;;;4969236;28;20056;-92
2021/01/10 07:47:42;;;;;;;31.38;13.15;;;2.70;99.90;;;;;;4972169;28;20027;-92
2021/01/10 07:50:24;;;;;;;28.48;12.45;;;2.70;99.90;;;;;;4961234;29;20027;-91
2021/01/10 07:52:52;;;;;;;27.45;12.93;;;2.80;99.90;;;;;;4951393;29;20031;-91
2021/01/10 07:55:18;;;;;;;24.58;10.60;;;2.80;99.90;;;;;;4966237;28;20038;-92
2021/01/10 07:58:04;;;;;;;32.78;14.38;;;2.80;99.90;;;;;;4952137;28;20019;-92
2021/01/10 08:00:34;;;;;;;28.67;13.40;;;2.80;99.90;;;;;;4941149;28;20050;-92
2021/01/10 08:03:01;;;;;;;28.52;11.70;;;2.90;99.90;;;;;;4958825;28;20035;-93
2021/01/10 08:05:35;;;;;;;16.98;9.43;;;2.90;99.90;;;;;;4946045;28;20029;-92
2021/01/10 08:08:13;;;;;;;20.15;9.60;;;2.90;99.90;;;;;;4941093;28;20022;-93
2021/01/10 08:10:52;;;;;;;19.25;9.98;;;2.90;99.90;;;;;;4948433;28;20038;-93
2021/01/10 08:13:31;;;;;;;19.13;9.13;;;2.90;99.90;;;;;;4959526;28;20030;-93
2021/01/10 08:16:13;;;;;;;18.30;7.70;;;2.90;99.90;;;;;;4957395;28;20401;-93
2021/01/10 08:18:40;;;;;;;20.23;9.52;;;2.90;99.90;;;;;;4971414;28;20100;-92
2021/01/10 08:21:11;;;;;;;19.05;9.25;;;2.90;99.90;;;;;;4949339;28;20047;-93
2021/01/10 08:23:38;;;;;;;17.83;8.52;;;3.00;99.90;;;;;;4950397;29;20019;-93
2021/01/10 08:26:10;;;;;;;21.05;8.15;;;3.00;99.90;;;;;;4952928;29;20031;-93
2021/01/10 08:28:40;;;;;;;16.23;8.02;;;3.00;99.90;;;;;;4946852;29;20023;-93
2021/01/10 08:31:12;;;;;;;21.08;9.57;;;3.00;99.90;;;;;;4948126;29;20027;-93
2021/01/10 08:33:39;;;;;;;19.90;8.73;;;3.00;99.90;;;;;;4947941;29;20519;-92
2021/01/10 08:36:23;;;;;;;17.92;9.05;;;3.10;99.90;;;;;;4948547;28;20062;-92
2021/01/10 08:38:55;;;;;;;17.20;9.20;;;3.10;99.90;;;;;;4956842;28;20074;-91
2021/01/10 08:41:28;;;;;;;18.67;8.90;;;3.10;99.90;;;;;;4956239;28;20047;-92
2021/01/10 08:44:04;;;;;;;16.75;8.10;;;3.10;99.90;;;;;;4946826;28;20429;-92
2021/01/10 08:46:34;;;;;;;14.23;6.95;;;3.10;99.90;;;;;;4954200;28;20027;-93
2021/01/10 08:49:00;;;;;;;15.45;7.50;;;3.10;99.90;;;;;;4957693;28;20050;-93
2021/01/10 08:51:42;;;;;;;23.08;10.13;;;3.10;99.90;;;;;;4954962;29;20062;-92
2021/01/10 08:54:13;;;;;;;;;;;3.20;99.90;;;;;;4965979;28;20027;-91
2021/01/10 08:56:41;;;;;;;22.10;10.27;;;3.20;99.90;;;;;;4965675;28;19945;-91
2021/01/10 08:59:07;;;;;;;25.70;11.68;;;3.10;99.90;;;;;;4950053;28;20035;-94
2021/01/10 09:01:34;;;;;;;20.75;8.95;;;3.20;99.90;;;;;;4956265;28;20462;-90
2021/01/10 09:04:05;;;;;;;14.05;5.15;;;3.20;99.90;;;;;;4954870;28;20061;-92
2021/01/10 09:06:31;;;;;;;14.48;6.25;;;3.20;99.90;;;;;;4966168;28;20125;-92
2021/01/10 09:09:16;;;;;;;16.02;8.57;;;3.20;99.90;;;;;;4964212;28;20516;-92
2021/01/10 09:11:46;;;;;;;18.00;9.68;;;3.30;99.90;;;;;;4948859;28;20094;-93
2021/01/10 09:14:13;;;;;;;16.15;8.18;;;3.30;99.90;;;;;;4945909;28;20031;-92
2021/01/10 09:16:40;;;;;;;19.95;8.35;;;3.30;99.90;;;;;;4948267;29;20027;-92
2021/01/10 09:19:08;;;;;;;17.38;8.40;;;3.30;99.90;;;;;;4948738;28;20106;-92
2021/01/10 09:21:34;;;;;;;23.13;10.60;;;3.30;99.90;;;;;;4953765;28;20075;-91
2021/01/10 09:24:03;;;;;;;20.80;10.55;;;3.30;99.90;;;;;;4954653;28;20019;-92
2021/01/10 09:26:34;;;;;;;20.35;9.75;;;3.40;99.90;;;;;;4946567;28;20395;-93
2021/01/10 09:29:02;;;;;;;18.98;9.38;;;3.40;99.90;;;;;;4956036;28;20469;-92
2021/01/10 09:31:42;;;;;;;20.85;10.07;;;3.40;99.90;;;;;;4951478;28;20035;-92
2021/01/10 09:34:08;;;;;;;18.13;8.60;;;3.40;99.90;;;;;;4946003;28;20078;-91
2021/01/10 09:36:34;;;;;;;21.00;9.93;;;3.40;99.90;;;;;;4964336;28;20279;-93
2021/01/10 09:39:00;;;;;;;22.10;11.23;;;3.50;99.90;;;;;;4945111;29;20031;-91
2021/01/10 09:41:26;;;;;;;14.68;7.07;;;3.50;99.90;;;;;;4967468;28;20050;-92
2021/01/10 09:43:54;;;;;;;19.85;8.95;;;3.60;99.90;;;;;;4962088;28;20019;-92
2021/01/10 09:46:28;;;;;;;21.25;8.85;;;3.60;99.90;;;;;;4945688;28;20023;-91
2021/01/10 09:49:02;;;;;;;19.90;10.05;;;3.70;99.90;;;;;;4946943;28;20027;-92
2021/01/10 09:51:35;;;;;;;22.52;9.50;;;3.70;99.90;;;;;;4950760;28;20057;-93
2021/01/10 09:54:18;;;;;;;15.82;9.45;;;3.80;99.90;;;;;;4962421;28;20027;-93
2021/01/10 09:56:46;;;;;;;16.35;8.27;;;3.90;99.90;;;;;;4965288;28;20035;-94
2021/01/10 09:59:31;;;;;;;16.67;7.95;;;3.90;99.90;;;;;;4955039;28;20032;-92
2021/01/10 10:01:59;;;;;;;13.38;6.05;;;4.00;99.90;;;;;;4954213;28;20035;-92
2021/01/10 10:04:28;;;;;;;18.67;10.13;;;4.10;99.90;;;;;;4946408;28;20026;-93
2021/01/10 10:06:55;;;;;;;19.33;8.82;;;4.10;99.90;;;;;;4955044;28;20026;-93
2021/01/10 10:09:21;;;;;;;21.33;10.88;;;4.20;99.90;;;;;;4961855;28;20027;-92
2021/01/10 10:11:46;;;;;;;16.38;8.80;;;4.10;99.90;;;;;;4947190;29;20020;-92
2021/01/10 10:14:13;;;;;;;13.85;7.80;;;4.20;99.90;;;;;;4964085;28;20505;-92
2021/01/10 10:16:40;;;;;;;16.75;7.95;;;4.20;99.90;;;;;;4955605;28;20019;-93
2021/01/10 10:19:06;;;;;;;13.32;7.60;;;4.20;99.90;;;;;;4956663;28;20026;-91
2021/01/10 10:21:31;;;;;;;11.80;6.25;;;4.30;99.90;;;;;;4945370;28;20431;-94
2021/01/10 10:23:57;;;;;;;11.73;6.60;;;4.30;99.90;;;;;;4950213;28;20545;-94
2021/01/10 10:26:22;;;;;;;12.02;6.32;;;4.30;99.90;;;;;;4953312;28;20023;-93
2021/01/10 10:28:48;;;;;;;7.38;3.90;;;4.40;99.90;;;;;;4956565;28;20054;-92
2021/01/10 10:31:14;;;;;;;11.95;6.53;;;4.40;99.90;;;;;;4954140;29;20035;-93
2021/01/10 10:33:40;;;;;;;9.93;5.95;;;4.50;99.90;;;;;;4955625;28;20030;-93
2021/01/10 10:36:06;;;;;;;13.38;7.28;;;4.60;99.90;;;;;;4950956;28;20023;-94
2021/01/10 10:38:34;;;;;;;10.02;6.30;;;4.60;99.90;;;;;;4955631;28;20023;-92
2021/01/10 10:41:04;;;;;;;11.57;6.28;;;4.60;99.90;;;;;;4966506;28;20131;-93
2021/01/10 10:43:29;;;;;;;10.37;5.77;;;4.70;99.90;;;;;;4962811;28;20429;-92
2021/01/10 10:45:55;;;;;;;14.70;5.20;;;4.70;99.90;;;;;;4955481;28;20279;-93
2021/01/10 10:48:20;;;;;;;10.32;6.05;;;4.70;99.90;;;;;;4945430;28;20041;-93
2021/01/10 10:50:48;;;;;;;12.05;6.85;;;4.80;99.90;;;;;;4956288;28;20034;-91
2021/01/10 10:53:14;;;;;;;12.88;6.57;;;4.80;99.90;;;;;;4966483;28;20031;-93
2021/01/10 10:55:40;;;;;;;8.43;5.38;;;4.80;99.90;;;;;;4949416;28;20026;-93
2021/01/10 10:58:05;;;;;;;11.38;5.93;;;4.80;99.90;;;;;;4957276;28;20553;-93
2021/01/10 11:00:33;;;;;;;13.20;6.82;;;4.80;99.90;;;;;;4954854;28;20031;-92
2021/01/10 11:03:00;;;;;;;11.43;6.97;;;4.80;99.90;;;;;;4953692;28;20027;-91
2021/01/10 11:05:25;;;;;;;14.25;7.85;;;4.80;99.90;;;;;;4968004;28;20028;-91
2021/01/10 11:07:51;;;;;;;14.60;8.38;;;4.80;99.90;;;;;;4968361;28;20137;-92
2021/01/10 11:10:17;;;;;;;13.23;7.60;;;4.70;99.90;;;;;;4968108;28;20042;-91
2021/01/10 11:12:42;;;;;;;12.30;7.60;;;4.60;99.90;;;;;;4975397;28;20026;-92
2021/01/10 11:15:08;;;;;;;12.25;7.43;;;4.60;99.90;;;;;;4962271;28;20034;-92
2021/01/10 11:17:34;;;;;;;10.85;6.45;;;4.60;99.90;;;;;;4961039;28;20469;-92
2021/01/10 11:20:05;;;;;;;9.90;5.55;;;4.50;99.90;;;;;;4965547;28;20070;-92
2021/01/10 11:22:35;;;;;;;8.13;4.38;;;4.50;99.90;;;;;;4975712;28;20058;-93
2021/01/10 11:25:03;;;;;;;12.27;5.78;;;4.50;99.90;;;;;;4959316;28;20027;-92
2021/01/10 11:27:29;;;;;;;10.15;5.53;;;4.60;99.90;;;;;;4950211;28;20126;-92
2021/01/10 11:29:55;;;;;;;8.77;4.93;;;4.60;99.90;;;;;;4957410;28;20054;-93
2021/01/10 11:32:20;;;;;;;4.35;2.70;;;4.60;99.90;;;;;;4946262;28;20031;-91
2021/01/10 11:34:46;;;;;;;10.95;5.78;;;4.50;99.90;;;;;;4959321;28;20078;-92
2021/01/10 11:37:12;;;;;;;9.13;5.05;;;4.60;99.90;;;;;;4957842;29;20122;-93
2021/01/10 11:39:38;;;;;;;9.80;5.10;;;4.60;99.90;;;;;;4947420;28;20015;-91
2021/01/10 11:42:04;;;;;;;8.27;4.88;;;4.60;99.90;;;;;;4969200;28;20038;-94
2021/01/10 11:44:29;;;;;;;11.77;6.47;;;4.60;99.90;;;;;;4958924;28;20023;-95
2021/01/10 11:46:55;;;;;;;7.47;4.50;;;4.60;99.90;;;;;;4958137;28;20057;-94
2021/01/10 11:49:22;;;;;;;7.47;4.72;;;4.60;99.90;;;;;;4965440;28;20028;-93
2021/01/10 11:51:48;;;;;;;10.05;5.47;;;4.60;99.90;;;;;;4950398;28;20027;-93
2021/01/10 11:54:15;;;;;;;11.13;5.90;;;4.60;99.90;;;;;;4962183;28;20039;-93
2021/01/10 11:56:41;;;;;;;11.50;5.50;;;4.60;99.90;;;;;;4956409;28;20050;-93
2021/01/10 11:59:06;;;;;;;7.65;4.78;;;4.60;99.90;;;;;;4962528;28;20031;-93
2021/01/10 12:01:37;;;;;;;9.68;6.07;;;4.70;99.90;;;;;;4958171;28;20485;-92
2021/01/10 12:04:03;;;;;;;7.50;3.60;;;4.70;99.90;;;;;;4959153;28;20748;-92
2021/01/10 12:06:29;;;;;;;8.20;4.35;;;4.60;99.90;;;;;;4965713;28;20028;-93
2021/01/10 12:08:56;;;;;;;7.47;4.47;;;4.70;99.90;;;;;;4951073;28;20031;-92
2021/01/10 12:11:22;;;;;;;8.63;4.63;;;4.70;99.90;;;;;;4948015;28;20122;-92
2021/01/10 12:13:48;;;;;;;7.85;4.28;;;4.70;99.90;;;;;;4952061;28;20061;-91
2021/01/10 12:16:17;;;;;;;7.78;4.60;;;4.70;99.90;;;;;;4947565;28;20062;-94
2021/01/10 12:18:43;;;;;;;6.95;4.72;;;4.70;99.90;;;;;;4956955;28;20027;-93
2021/01/10 12:21:10;;;;;;;9.30;4.38;;;4.70;99.90;;;;;;4961103;28;20082;-91
2021/01/10 12:23:37;;;;;;;8.05;4.70;;;4.70;99.90;;;;;;4964012;28;20022;-92
2021/01/10 12:26:16;;;;;;;8.05;5.20;;;4.70;99.90;;;;;;4968960;28;20038;-91
2021/01/10 12:28:45;;;;;;;15.55;7.10;;;4.80;99.90;;;;;;4966996;28;20019;-93
2021/01/10 12:31:12;;;;;;;8.35;5.13;;;4.80;99.90;;;;;;4953173;28;20027;-93
2021/01/10 12:33:39;;;;;;;9.00;5.20;;;4.70;99.90;;;;;;4947722;29;20023;-94
2021/01/10 12:36:07;;;;;;;11.50;5.55;;;4.80;99.90;;;;;;4950512;28;20019;-92
2021/01/10 12:38:33;;;;;;;9.57;5.15;;;4.80;99.90;;;;;;4957058;28;20023;-92
2021/01/10 12:41:01;;;;;;;8.00;4.15;;;4.80;99.90;;;;;;4955717;28;20416;-94
2021/01/10 12:43:26;;;;;;;8.18;4.78;;;4.70;99.90;;;;;;4954707;28;20024;-93
2021/01/10 12:45:52;;;;;;;9.27;4.85;;;4.80;99.90;;;;;;4949869;28;20023;-93
2021/01/10 12:48:19;;;;;;;7.85;3.90;;;4.80;99.90;;;;;;4950249;28;20034;-93
2021/01/10 12:50:46;;;;;;;6.43;3.83;;;4.80;99.90;;;;;;4953604;28;20042;-95
2021/01/10 12:53:12;;;;;;;12.85;6.05;;;4.80;99.90;;;;;;4956348;28;20027;-93
2021/01/10 12:55:38;;;;;;;11.50;5.60;;;4.80;99.90;;;;;;4953718;28;20050;-93